Penn, Nebraska
Current Conditions -  °F | °C
As of 2:53 PM on Sunday 21 Dec 2014 (Local Time) from KAIA Reporting Station
Scattered Clouds Scattered Clouds  
Wind Chill: 33°   Ceiling: Unl
Heat Index: 41°   Visibility: 10mi
Dew Point: 31°   Wind: 16mph
Humidity: 67%   Direction: 240°WSW
Pressure: 29.43"   Gusts: NA
Location:  41.7534°N, 102.325°W
Report Text: KAIA 212153Z AUTO 24014KT 10SM FEW080 SCT120 05/M01 A2943 RMK AO2 SLP978 T00501006
Loading
Personal Weather Stations






























Interactive Weather Map New forecast layout! Learn more

10-Day Weather Forecast

Advertisements
Track Severe Weather on mobile